Archimede — IXZR — position and weather

sailwx.info

Track history (hours):
 
Tides and Currents Weather Stations Pressure Air Temp Water Temp Dewpoint Dewpoint Depression Visibility Wind Speed Wind Dir Waves Ship Positions

Archimede

Last reported at 2017-Feb-28 07:33 UTC. Time now 2017-Feb-28 07:34 UTC.
Position N 38°09' E 015°33'.

; draft 3.1 m.

Type: Passenger vessel. MMSI: 247054700.

Date/timePositionNaut miles runAvg speedWind from/ knotsBaromVisibWave heightAir tempDewpointWater temp
2017-Feb-28 07:33N 38°09' E 015°33'6 6.0
2017-Feb-28 06:33N 38°13' E 015°38'0 0.0
2017-Feb-28 02:34N 38°13' E 015°38'7 7.4
2017-Feb-28 01:33N 38°08' E 015°31'7 7.4
2017-Feb-28 00:33N 38°13' E 015°38'6 5.6
2017-Feb-27 23:33N 38°09' E 015°34'5 4.7
2017-Feb-27 22:33N 38°13' E 015°36'5 4.9
2017-Feb-27 21:33N 38°08' E 015°34'5 4.9
2017-Feb-27 20:33N 38°13' E 015°36'3 3.5
2017-Feb-27 19:33N 38°09' E 015°37'2 2.1
2017-Feb-27 18:33N 38°10' E 015°35'2 2.2
2017-Feb-27 17:33N 38°10' E 015°37'4 3.6
2017-Feb-27 16:33N 38°09' E 015°33'6 5.7
2017-Feb-27 15:33N 38°13' E 015°38'7 7.5
2017-Feb-27 14:33N 38°08' E 015°31'7 7.4
2017-Feb-27 13:33N 38°13' E 015°38'4 4.4
2017-Feb-27 12:33N 38°09' E 015°36'2 2.4
2017-Feb-27 11:33N 38°11' E 015°35'3 2.6
2017-Feb-27 10:34N 38°09' E 015°36'3 2.5
2017-Feb-27 09:34N 38°11' E 015°35'2 2.4
2017-Feb-27 08:33N 38°09' E 015°36'4 3.7
2017-Feb-27 07:30N 38°12' E 015°34'0 0.0
2017-Feb-26 02:16N 38°12' E 015°34'3 4.6
2017-Feb-26 01:33N 38°13' E 015°38'0 0.2
2017-Feb-26 00:33N 38°13' E 015°38'7 7.4
2017-Feb-25 23:34N 38°08' E 015°32'7 7.4
2017-Feb-25 22:33N 38°13' E 015°38'7 6.9
2017-Feb-25 21:34N 38°08' E 015°32'7 6.8
2017-Feb-25 20:34N 38°13' E 015°38'0 0.0
2017-Feb-25 19:34N 38°13' E 015°38'7 7.1
2017-Feb-25 18:33N 38°08' E 015°32'7 7.3
2017-Feb-25 17:34N 38°13' E 015°38'7 7.4
2017-Feb-25 16:33N 38°08' E 015°31'7 7.6
2017-Feb-25 15:34N 38°13' E 015°38'6 6.3
2017-Feb-25 14:34N 38°09' E 015°33'6 6.3
2017-Feb-25 13:34N 38°13' E 015°38'6 5.8
2017-Feb-25 12:33N 38°08' E 015°34'3 2.7
2017-Feb-25 11:33N 38°11' E 015°36'2 1.6
2017-Feb-25 10:33N 38°12' E 015°37'6 5.9
2017-Feb-25 09:34N 38°08' E 015°31'7 7.4
2017-Feb-25 08:33N 38°13' E 015°38'0 0.0
2017-Feb-25 07:34N 38°13' E 015°38'0 0.0
2017-Feb-25 02:31N 38°13' E 015°38'7 7.6
2017-Feb-25 01:33N 38°08' E 015°31'7 7.4
2017-Feb-25 00:33N 38°13' E 015°38'7 7.4
2017-Feb-24 23:33N 38°08' E 015°31'7 7.3
2017-Feb-24 22:33N 38°13' E 015°38'7 6.9
2017-Feb-24 21:33N 38°08' E 015°32'6 6.0
2017-Feb-24 20:33N 38°13' E 015°36'1 1.3
2017-Feb-24 19:34N 38°12' E 015°37'5 5.4
2017-Feb-24 18:33N 38°08' E 015°32'6 5.9
2017-Feb-24 17:34N 38°13' E 015°37'6 6.0
2017-Feb-24 16:33N 38°08' E 015°32'7 7.0
2017-Feb-24 15:34N 38°13' E 015°38'7 7.4
2017-Feb-24 14:33N 38°08' E 015°31'7 7.4
2017-Feb-24 13:34N 38°13' E 015°38'5 5.0
2017-Feb-24 12:34N 38°09' E 015°35'3 3.2
2017-Feb-24 11:34N 38°12' E 015°36'3 2.7
2017-Feb-24 10:33N 38°09' E 015°37'2 2.1
2017-Feb-24 09:34N 38°09' E 015°34'2 2.5
2017-Feb-24 08:33N 38°11' E 015°37'2 2.5
2017-Feb-24 07:33N 38°10' E 015°34'5 1.0
2017-Feb-24 02:31N 38°13' E 015°38'7 7.6
2017-Feb-24 01:33N 38°08' E 015°31'7 7.4
2017-Feb-24 00:34N 38°13' E 015°38'7 7.3
2017-Feb-23 23:33N 38°08' E 015°32'7 6.7
2017-Feb-23 22:34N 38°13' E 015°37'5 5.4
2017-Feb-23 21:34N 38°08' E 015°34'4 4.2
2017-Feb-23 20:33N 38°12' E 015°36'3 2.7
2017-Feb-23 19:34N 38°10' E 015°37'3 2.8
2017-Feb-23 18:33N 38°09' E 015°34'4 3.9
2017-Feb-23 17:33N 38°12' E 015°37'5 5.4
2017-Feb-23 16:33N 38°08' E 015°32'7 7.1
2017-Feb-23 15:33N 38°13' E 015°38'7 7.5
2017-Feb-23 14:33N 38°08' E 015°31'7 7.4
2017-Feb-23 13:33N 38°14' E 015°38'2 2.4
2017-Feb-23 12:33N 38°11' E 015°37'5 4.6
2017-Feb-23 11:33N 38°08' E 015°32'6 6.2
2017-Feb-23 10:33N 38°13' E 015°38'7 6.5
2017-Feb-23 09:29N 38°08' E 015°31'7 7.9
2017-Feb-23 08:34N 38°13' E 015°38'0 0.0
2017-Feb-23 07:34N 38°13' E 015°38'0 0.0
2017-Feb-23 02:34N 38°13' E 015°38'7 6.9
2017-Feb-23 01:33N 38°08' E 015°32'7 7.1
2017-Feb-23 00:34N 38°13' E 015°38'7 7.2
2017-Feb-22 23:33N 38°08' E 015°31'7 7.5
2017-Feb-22 22:34N 38°13' E 015°38'7 7.2
2017-Feb-22 21:33N 38°08' E 015°32'7 7.3
2017-Feb-22 20:33N 38°13' E 015°38'4 4.3
2017-Feb-22 19:33N 38°09' E 015°36'2 2.2
2017-Feb-22 18:33N 38°09' E 015°34'4 3.7
2017-Feb-22 17:33N 38°11' E 015°37'6 5.7
2017-Feb-22 16:33N 38°08' E 015°31'7 7.5
2017-Feb-22 15:33N 38°13' E 015°38'7 7.5
2017-Feb-22 14:33N 38°08' E 015°31'7 7.5
2017-Feb-22 13:33N 38°13' E 015°38'5 4.9
2017-Feb-22 12:33N 38°09' E 015°36'3 2.9
2017-Feb-22 11:33N 38°12' E 015°35'3 2.8
2017-Feb-22 10:33N 38°09' E 015°36'2 2.5
2017-Feb-22 09:33N 38°11' E 015°35'3 2.6
2017-Feb-22 08:34N 38°09' E 015°36'2 2.0
2017-Feb-22 07:34N 38°11' E 015°35'3 0.5
2017-Feb-22 00:33N 38°13' E 015°38'7 6.8
2017-Feb-21 23:33N 38°08' E 015°32'7 6.6
2017-Feb-21 22:33N 38°13' E 015°37'6 5.8
2017-Feb-21 21:33N 38°08' E 015°34'4 4.4
2017-Feb-21 20:34N 38°12' E 015°36'3 3.5
2017-Feb-21 19:33N 38°09' E 015°35'1 1.2
2017-Feb-21 18:33N 38°09' E 015°34'5 4.7
2017-Feb-21 17:34N 38°13' E 015°38'7 6.8
2017-Feb-21 16:33N 38°08' E 015°31'7 7.6
2017-Feb-21 15:33N 38°13' E 015°38'7 7.5
2017-Feb-21 14:33N 38°08' E 015°31'7 7.4
2017-Feb-21 13:33N 38°13' E 015°38'6 6.4
2017-Feb-21 12:33N 38°08' E 015°33'6 5.9
2017-Feb-21 11:33N 38°13' E 015°37'5 4.9
2017-Feb-21 10:33N 38°09' E 015°34'3 3.1
2017-Feb-21 09:33N 38°12' E 015°36'3 2.8
2017-Feb-21 08:33N 38°09' E 015°36'2 1.6
2017-Feb-21 07:33N 38°10' E 015°35'4 0.8
2017-Feb-21 02:29N 38°13' E 015°38'7 7.9
2017-Feb-21 01:33N 38°08' E 015°31'7 7.4
2017-Feb-21 00:33N 38°13' E 015°38'7 6.9
2017-Feb-20 23:33N 38°08' E 015°32'6 6.5
2017-Feb-20 22:33N 38°13' E 015°37'6 5.6
2017-Feb-20 21:33N 38°08' E 015°34'4 4.3
2017-Feb-20 20:33N 38°12' E 015°36'3 2.9
2017-Feb-20 19:33N 38°09' E 015°36'2 2.1
2017-Feb-20 18:33N 38°09' E 015°33'4 3.8
2017-Feb-20 17:33N 38°11' E 015°37'5 5.2
2017-Feb-20 16:33N 38°08' E 015°32'6 6.1
2017-Feb-20 15:34N 38°13' E 015°37'3 2.6
2017-Feb-20 14:33N 38°12' E 015°34'0 0.0
2017-Feb-20 13:33N 38°12' E 015°34'0 0.0
2017-Feb-20 12:34N 38°12' E 015°34'0 0.0
2017-Feb-20 11:33N 38°12' E 015°34'0 0.0
2017-Feb-20 10:34N 38°12' E 015°34'0 0.0
2017-Feb-20 09:33N 38°12' E 015°34'0 0.0
2017-Feb-20 08:33N 38°12' E 015°34'0 0.0
2017-Feb-20 07:33N 38°12' E 015°34'0 0.0
2017-Feb-20 06:33N 38°12' E 015°34'0 0.0
2017-Feb-19 01:13N 38°12' E 015°34'3 5.2
2017-Feb-19 00:33N 38°13' E 015°38'7 7.2
2017-Feb-18 23:31N 38°08' E 015°31'7 7.7
2017-Feb-18 22:33N 38°13' E 015°38'7 7.3
2017-Feb-18 21:33N 38°08' E 015°32'6 6.5
2017-Feb-18 20:33N 38°13' E 015°37'4 4.4
2017-Feb-18 19:33N 38°09' E 015°35'1 1.2
2017-Feb-18 18:33N 38°09' E 015°34'4 3.5
2017-Feb-18 17:33N 38°11' E 015°37'6 5.6
2017-Feb-18 16:33N 38°08' E 015°32'7 7.2
2017-Feb-18 15:34N 38°13' E 015°38'7 7.3
2017-Feb-18 14:33N 38°08' E 015°31'7 7.5
2017-Feb-18 13:34N 38°13' E 015°38'0 0.0
2017-Feb-18 12:34N 38°13' E 015°38'7 7.5
2017-Feb-18 11:33N 38°08' E 015°31'6 6.3
2017-Feb-18 10:33N 38°12' E 015°37'4 4.0
2017-Feb-18 09:33N 38°09' E 015°34'5 5.2
2017-Feb-18 08:33N 38°13' E 015°38'0 0.0
2017-Feb-18 07:33N 38°13' E 015°38'  
Track history (hours):
 
Tides and Currents Weather Stations Pressure Air Temp Water Temp Dewpoint Dewpoint Depression Visibility Wind Speed Wind Dir Waves Ship Positions

Archimede

Last reported at 2017-Feb-28 07:33 UTC. Time now 2017-Feb-28 07:34 UTC.
Position N 38°09' E 015°33'.

; draft 3.1 m.

Type: Passenger vessel. MMSI: 247054700.

Date/timePositionNaut miles runAvg speedWind from/ knotsBaromVisibWave heightAir tempDewpointWater temp
2017-Feb-28 07:33N 38°09' E 015°33'6 6.0
2017-Feb-28 06:33N 38°13' E 015°38'0 0.0
2017-Feb-28 02:34N 38°13' E 015°38'7 7.4
2017-Feb-28 01:33N 38°08' E 015°31'7 7.4
2017-Feb-28 00:33N 38°13' E 015°38'6 5.6
2017-Feb-27 23:33N 38°09' E 015°34'5 4.7
2017-Feb-27 22:33N 38°13' E 015°36'5 4.9
2017-Feb-27 21:33N 38°08' E 015°34'5 4.9
2017-Feb-27 20:33N 38°13' E 015°36'3 3.5
2017-Feb-27 19:33N 38°09' E 015°37'2 2.1
2017-Feb-27 18:33N 38°10' E 015°35'2 2.2
2017-Feb-27 17:33N 38°10' E 015°37'4 3.6
2017-Feb-27 16:33N 38°09' E 015°33'6 5.7
2017-Feb-27 15:33N 38°13' E 015°38'7 7.5
2017-Feb-27 14:33N 38°08' E 015°31'7 7.4
2017-Feb-27 13:33N 38°13' E 015°38'4 4.4
2017-Feb-27 12:33N 38°09' E 015°36'2 2.4
2017-Feb-27 11:33N 38°11' E 015°35'3 2.6
2017-Feb-27 10:34N 38°09' E 015°36'3 2.5
2017-Feb-27 09:34N 38°11' E 015°35'2 2.4
2017-Feb-27 08:33N 38°09' E 015°36'4 3.7
2017-Feb-27 07:30N 38°12' E 015°34'0 0.0
2017-Feb-26 02:16N 38°12' E 015°34'3 4.6
2017-Feb-26 01:33N 38°13' E 015°38'0 0.2
2017-Feb-26 00:33N 38°13' E 015°38'7 7.4
2017-Feb-25 23:34N 38°08' E 015°32'7 7.4
2017-Feb-25 22:33N 38°13' E 015°38'7 6.9
2017-Feb-25 21:34N 38°08' E 015°32'7 6.8
2017-Feb-25 20:34N 38°13' E 015°38'0 0.0
2017-Feb-25 19:34N 38°13' E 015°38'7 7.1
2017-Feb-25 18:33N 38°08' E 015°32'7 7.3
2017-Feb-25 17:34N 38°13' E 015°38'7 7.4
2017-Feb-25 16:33N 38°08' E 015°31'7 7.6
2017-Feb-25 15:34N 38°13' E 015°38'6 6.3
2017-Feb-25 14:34N 38°09' E 015°33'6 6.3
2017-Feb-25 13:34N 38°13' E 015°38'6 5.8
2017-Feb-25 12:33N 38°08' E 015°34'3 2.7
2017-Feb-25 11:33N 38°11' E 015°36'2 1.6
2017-Feb-25 10:33N 38°12' E 015°37'6 5.9
2017-Feb-25 09:34N 38°08' E 015°31'7 7.4
2017-Feb-25 08:33N 38°13' E 015°38'0 0.0
2017-Feb-25 07:34N 38°13' E 015°38'0 0.0
2017-Feb-25 02:31N 38°13' E 015°38'7 7.6
2017-Feb-25 01:33N 38°08' E 015°31'7 7.4
2017-Feb-25 00:33N 38°13' E 015°38'7 7.4
2017-Feb-24 23:33N 38°08' E 015°31'7 7.3
2017-Feb-24 22:33N 38°13' E 015°38'7 6.9
2017-Feb-24 21:33N 38°08' E 015°32'6 6.0
2017-Feb-24 20:33N 38°13' E 015°36'1 1.3
2017-Feb-24 19:34N 38°12' E 015°37'5 5.4
2017-Feb-24 18:33N 38°08' E 015°32'6 5.9
2017-Feb-24 17:34N 38°13' E 015°37'6 6.0
2017-Feb-24 16:33N 38°08' E 015°32'7 7.0
2017-Feb-24 15:34N 38°13' E 015°38'7 7.4
2017-Feb-24 14:33N 38°08' E 015°31'7 7.4
2017-Feb-24 13:34N 38°13' E 015°38'5 5.0
2017-Feb-24 12:34N 38°09' E 015°35'3 3.2
2017-Feb-24 11:34N 38°12' E 015°36'3 2.7
2017-Feb-24 10:33N 38°09' E 015°37'2 2.1
2017-Feb-24 09:34N 38°09' E 015°34'2 2.5
2017-Feb-24 08:33N 38°11' E 015°37'2 2.5
2017-Feb-24 07:33N 38°10' E 015°34'5 1.0
2017-Feb-24 02:31N 38°13' E 015°38'7 7.6
2017-Feb-24 01:33N 38°08' E 015°31'7 7.4
2017-Feb-24 00:34N 38°13' E 015°38'7 7.3
2017-Feb-23 23:33N 38°08' E 015°32'7 6.7
2017-Feb-23 22:34N 38°13' E 015°37'5 5.4
2017-Feb-23 21:34N 38°08' E 015°34'4 4.2
2017-Feb-23 20:33N 38°12' E 015°36'3 2.7
2017-Feb-23 19:34N 38°10' E 015°37'3 2.8
2017-Feb-23 18:33N 38°09' E 015°34'4 3.9
2017-Feb-23 17:33N 38°12' E 015°37'5 5.4
2017-Feb-23 16:33N 38°08' E 015°32'7 7.1
2017-Feb-23 15:33N 38°13' E 015°38'7 7.5
2017-Feb-23 14:33N 38°08' E 015°31'7 7.4
2017-Feb-23 13:33N 38°14' E 015°38'2 2.4
2017-Feb-23 12:33N 38°11' E 015°37'5 4.6
2017-Feb-23 11:33N 38°08' E 015°32'6 6.2
2017-Feb-23 10:33N 38°13' E 015°38'7 6.5
2017-Feb-23 09:29N 38°08' E 015°31'7 7.9
2017-Feb-23 08:34N 38°13' E 015°38'0 0.0
2017-Feb-23 07:34N 38°13' E 015°38'0 0.0
2017-Feb-23 02:34N 38°13' E 015°38'7 6.9
2017-Feb-23 01:33N 38°08' E 015°32'7 7.1
2017-Feb-23 00:34N 38°13' E 015°38'7 7.2
2017-Feb-22 23:33N 38°08' E 015°31'7 7.5
2017-Feb-22 22:34N 38°13' E 015°38'7 7.2
2017-Feb-22 21:33N 38°08' E 015°32'7 7.3
2017-Feb-22 20:33N 38°13' E 015°38'4 4.3
2017-Feb-22 19:33N 38°09' E 015°36'2 2.2
2017-Feb-22 18:33N 38°09' E 015°34'4 3.7
2017-Feb-22 17:33N 38°11' E 015°37'6 5.7
2017-Feb-22 16:33N 38°08' E 015°31'7 7.5
2017-Feb-22 15:33N 38°13' E 015°38'7 7.5
2017-Feb-22 14:33N 38°08' E 015°31'7 7.5
2017-Feb-22 13:33N 38°13' E 015°38'5 4.9
2017-Feb-22 12:33N 38°09' E 015°36'3 2.9
2017-Feb-22 11:33N 38°12' E 015°35'3 2.8
2017-Feb-22 10:33N 38°09' E 015°36'2 2.5
2017-Feb-22 09:33N 38°11' E 015°35'3 2.6
2017-Feb-22 08:34N 38°09' E 015°36'2 2.0
2017-Feb-22 07:34N 38°11' E 015°35'3 0.5
2017-Feb-22 00:33N 38°13' E 015°38'7 6.8
2017-Feb-21 23:33N 38°08' E 015°32'7 6.6
2017-Feb-21 22:33N 38°13' E 015°37'6 5.8
2017-Feb-21 21:33N 38°08' E 015°34'4 4.4
2017-Feb-21 20:34N 38°12' E 015°36'3 3.5
2017-Feb-21 19:33N 38°09' E 015°35'1 1.2
2017-Feb-21 18:33N 38°09' E 015°34'5 4.7
2017-Feb-21 17:34N 38°13' E 015°38'7 6.8
2017-Feb-21 16:33N 38°08' E 015°31'7 7.6
2017-Feb-21 15:33N 38°13' E 015°38'7 7.5
2017-Feb-21 14:33N 38°08' E 015°31'7 7.4
2017-Feb-21 13:33N 38°13' E 015°38'6 6.4
2017-Feb-21 12:33N 38°08' E 015°33'6 5.9
2017-Feb-21 11:33N 38°13' E 015°37'5 4.9
2017-Feb-21 10:33N 38°09' E 015°34'3 3.1
2017-Feb-21 09:33N 38°12' E 015°36'3 2.8
2017-Feb-21 08:33N 38°09' E 015°36'2 1.6
2017-Feb-21 07:33N 38°10' E 015°35'4 0.8
2017-Feb-21 02:29N 38°13' E 015°38'7 7.9
2017-Feb-21 01:33N 38°08' E 015°31'7 7.4
2017-Feb-21 00:33N 38°13' E 015°38'7 6.9
2017-Feb-20 23:33N 38°08' E 015°32'6 6.5
2017-Feb-20 22:33N 38°13' E 015°37'6 5.6
2017-Feb-20 21:33N 38°08' E 015°34'4 4.3
2017-Feb-20 20:33N 38°12' E 015°36'3 2.9
2017-Feb-20 19:33N 38°09' E 015°36'2 2.1
2017-Feb-20 18:33N 38°09' E 015°33'4 3.8
2017-Feb-20 17:33N 38°11' E 015°37'5 5.2
2017-Feb-20 16:33N 38°08' E 015°32'6 6.1
2017-Feb-20 15:34N 38°13' E 015°37'3 2.6
2017-Feb-20 14:33N 38°12' E 015°34'0 0.0
2017-Feb-20 13:33N 38°12' E 015°34'0 0.0
2017-Feb-20 12:34N 38°12' E 015°34'0 0.0
2017-Feb-20 11:33N 38°12' E 015°34'0 0.0
2017-Feb-20 10:34N 38°12' E 015°34'0 0.0
2017-Feb-20 09:33N 38°12' E 015°34'0 0.0
2017-Feb-20 08:33N 38°12' E 015°34'0 0.0
2017-Feb-20 07:33N 38°12' E 015°34'0 0.0
2017-Feb-20 06:33N 38°12' E 015°34'0 0.0
2017-Feb-19 01:13N 38°12' E 015°34'3 5.2
2017-Feb-19 00:33N 38°13' E 015°38'7 7.2
2017-Feb-18 23:31N 38°08' E 015°31'7 7.7
2017-Feb-18 22:33N 38°13' E 015°38'7 7.3
2017-Feb-18 21:33N 38°08' E 015°32'6 6.5
2017-Feb-18 20:33N 38°13' E 015°37'4 4.4
2017-Feb-18 19:33N 38°09' E 015°35'1 1.2
2017-Feb-18 18:33N 38°09' E 015°34'4 3.5
2017-Feb-18 17:33N 38°11' E 015°37'6 5.6
2017-Feb-18 16:33N 38°08' E 015°32'7 7.2
2017-Feb-18 15:34N 38°13' E 015°38'7 7.3
2017-Feb-18 14:33N 38°08' E 015°31'7 7.5
2017-Feb-18 13:34N 38°13' E 015°38'0 0.0
2017-Feb-18 12:34N 38°13' E 015°38'7 7.5
2017-Feb-18 11:33N 38°08' E 015°31'6 6.3
2017-Feb-18 10:33N 38°12' E 015°37'4 4.0
2017-Feb-18 09:33N 38°09' E 015°34'5 5.2
2017-Feb-18 08:33N 38°13' E 015°38'0 0.0
2017-Feb-18 07:33N 38°13' E 015°38'  

Dump ship's entire track history